createdAt,value
2022-12-29T00:00:10.972Z,263.0
2022-12-29T00:01:10.285Z,266.0
2022-12-29T00:02:06.477Z,268.0
2022-12-29T00:03:06.743Z,270.0
2022-12-29T00:04:12.846Z,267.0
2022-12-29T00:05:06.696Z,269.0
2022-12-29T00:06:07.516Z,271.0
2022-12-29T00:07:10.700Z,283.0
2022-12-29T00:08:11.637Z,293.0
2022-12-29T00:09:07.475Z,298.0
2022-12-29T00:10:07.015Z,320.0
2022-12-29T00:11:09.996Z,319.0
2022-12-29T00:12:07.584Z,320.0
2022-12-29T00:13:06.153Z,330.0
2022-12-29T00:14:07.875Z,333.0
2022-12-29T00:15:07.685Z,333.0
2022-12-29T00:16:07.192Z,340.0
2022-12-29T00:17:07.394Z,344.0
2022-12-29T00:18:05.635Z,343.0
2022-12-29T00:19:07.203Z,329.0
2022-12-29T00:20:07.524Z,328.0
2022-12-29T00:21:06.705Z,338.0
2022-12-29T00:22:09.967Z,317.0
2022-12-29T00:23:07.856Z,328.0
2022-12-29T00:24:07.138Z,331.0
2022-12-29T00:25:36.784Z,324.0
2022-12-29T00:26:09.720Z,327.0
2022-12-29T00:28:32.563Z,293.0
2022-12-29T00:29:35.022Z,286.0
2022-12-29T00:30:28.664Z,282.0
2022-12-29T00:31:30.828Z,286.0
2022-12-29T00:32:31.624Z,292.0
2022-12-29T00:33:29.650Z,289.0
2022-12-29T00:34:34.349Z,291.0
2022-12-29T00:35:29.693Z,287.0
2022-12-29T00:36:30.160Z,291.0
2022-12-29T00:37:27.821Z,289.0
2022-12-29T00:38:28.845Z,290.0
2022-12-29T00:39:27.822Z,285.0
2022-12-29T00:40:27.212Z,281.0
2022-12-29T00:41:28.251Z,284.0
2022-12-29T00:42:28.356Z,284.0
2022-12-29T00:43:26.460Z,289.0
2022-12-29T00:44:29.710Z,289.0
2022-12-29T00:45:30.131Z,286.0
2022-12-29T00:46:26.471Z,287.0
2022-12-29T00:47:28.867Z,287.0
2022-12-29T00:48:31.165Z,284.0
2022-12-29T00:49:27.180Z,276.0
2022-12-29T00:50:27.795Z,281.0
2022-12-29T00:51:28.644Z,296.0
2022-12-29T00:52:27.687Z,295.0
2022-12-29T00:53:29.763Z,296.0
2022-12-29T00:54:26.950Z,296.0
2022-12-29T00:55:29.983Z,299.0
2022-12-29T00:56:27.743Z,303.0
2022-12-29T00:57:28.780Z,304.0
2022-12-29T00:58:36.657Z,300.0
2022-12-29T00:59:27.859Z,298.0
2022-12-29T01:00:26.984Z,299.0
2022-12-29T01:01:30.944Z,297.0
2022-12-29T01:02:30.836Z,288.0
2022-12-29T01:03:27.475Z,288.0
2022-12-29T01:04:28.530Z,289.0
2022-12-29T01:05:29.866Z,285.0
2022-12-29T01:06:30.870Z,288.0
2022-12-29T01:07:31.134Z,285.0
2022-12-29T01:08:30.114Z,300.0
2022-12-29T01:09:26.704Z,291.0
2022-12-29T01:10:29.123Z,300.0
2022-12-29T01:11:26.049Z,306.0
2022-12-29T01:12:26.615Z,321.0
2022-12-29T01:13:27.919Z,326.0
2022-12-29T01:14:26.632Z,340.0
2022-12-29T01:15:29.296Z,336.0
2022-12-29T01:16:28.687Z,337.0
2022-12-29T01:17:26.132Z,345.0
2022-12-29T01:18:27.484Z,338.0
2022-12-29T01:19:26.155Z,338.0
2022-12-29T01:20:27.495Z,342.0
2022-12-29T01:21:27.902Z,340.0
2022-12-29T01:22:27.505Z,341.0
2022-12-29T01:23:29.411Z,341.0
2022-12-29T01:24:26.598Z,330.0
2022-12-29T01:25:28.147Z,333.0
2022-12-29T01:26:27.144Z,337.0
2022-12-29T01:27:33.588Z,334.0
2022-12-29T01:28:26.450Z,340.0
2022-12-29T01:29:27.113Z,340.0
2022-12-29T01:30:27.762Z,338.0
2022-12-29T01:31:26.925Z,333.0
2022-12-29T01:32:28.736Z,321.0
2022-12-29T01:33:29.141Z,314.0
2022-12-29T01:34:28.695Z,312.0
2022-12-29T01:35:26.680Z,307.0
2022-12-29T01:36:26.351Z,295.0
2022-12-29T01:37:25.866Z,298.0
2022-12-29T01:38:26.951Z,306.0
2022-12-29T01:39:29.663Z,303.0
2022-12-29T01:40:27.226Z,306.0
2022-12-29T01:41:29.182Z,317.0
2022-12-29T01:42:26.108Z,327.0
2022-12-29T01:43:26.526Z,342.0
2022-12-29T01:44:27.611Z,318.0
2022-12-29T01:45:29.257Z,307.0
2022-12-29T01:46:26.638Z,289.0
2022-12-29T01:47:27.842Z,287.0
2022-12-29T01:48:26.760Z,282.0
2022-12-29T01:49:28.411Z,306.0
2022-12-29T01:50:27.111Z,326.0
2022-12-29T01:51:25.787Z,324.0
2022-12-29T01:52:28.660Z,326.0
2022-12-29T01:53:28.013Z,339.0
2022-12-29T01:54:33.776Z,336.0
2022-12-29T01:55:26.099Z,339.0
2022-12-29T01:56:25.596Z,324.0
2022-12-29T01:57:27.351Z,306.0
2022-12-29T01:58:27.632Z,270.0
2022-12-29T01:59:28.010Z,279.0
2022-12-29T02:00:25.030Z,276.0
2022-12-29T02:01:25.091Z,285.0
2022-12-29T02:02:25.054Z,296.0
2022-12-29T02:03:25.005Z,296.0
2022-12-29T02:04:24.921Z,292.0
2022-12-29T02:05:24.926Z,307.0
2022-12-29T02:06:24.903Z,309.0
2022-12-29T02:07:25.101Z,309.0
2022-12-29T02:08:24.904Z,312.0
2022-12-29T02:09:24.927Z,331.0
2022-12-29T02:10:24.870Z,330.0
2022-12-29T02:11:24.847Z,331.0
2022-12-29T02:12:24.941Z,327.0
2022-12-29T02:13:24.846Z,335.0
2022-12-29T02:14:24.839Z,335.0
2022-12-29T02:15:24.942Z,327.0
2022-12-29T02:16:24.837Z,319.0
2022-12-29T02:17:24.850Z,314.0
2022-12-29T02:18:24.759Z,310.0
2022-12-29T02:19:24.714Z,299.0
2022-12-29T02:20:24.726Z,299.0
2022-12-29T02:21:24.715Z,298.0
2022-12-29T02:22:24.696Z,293.0
2022-12-29T02:23:24.681Z,286.0
2022-12-29T02:24:24.715Z,281.0
2022-12-29T02:25:24.782Z,276.0
2022-12-29T02:26:24.620Z,270.0
2022-12-29T02:27:24.616Z,274.0
2022-12-29T02:28:24.614Z,276.0
2022-12-29T02:29:24.581Z,273.0
2022-12-29T02:30:24.557Z,277.0
2022-12-29T02:31:24.672Z,266.0
2022-12-29T02:32:24.582Z,270.0
2022-12-29T02:33:24.579Z,261.0
2022-12-29T02:34:24.639Z,277.0
2022-12-29T02:35:24.577Z,279.0
2022-12-29T02:36:24.543Z,278.0
2022-12-29T02:37:24.552Z,287.0
2022-12-29T02:38:24.547Z,281.0
2022-12-29T02:39:24.512Z,280.0
2022-12-29T02:40:24.528Z,297.0
2022-12-29T02:41:24.640Z,282.0
2022-12-29T02:42:24.613Z,278.0
2022-12-29T02:43:24.571Z,273.0
2022-12-29T02:44:24.607Z,299.0
2022-12-29T02:45:24.483Z,274.0
2022-12-29T02:46:24.889Z,268.0
2022-12-29T02:47:24.525Z,264.0
2022-12-29T02:48:24.543Z,274.0
2022-12-29T02:49:24.470Z,292.0
2022-12-29T02:50:24.517Z,288.0
2022-12-29T02:51:24.294Z,301.0
2022-12-29T02:52:24.461Z,291.0
2022-12-29T02:53:24.439Z,288.0
2022-12-29T02:54:24.244Z,294.0
2022-12-29T02:55:24.387Z,332.0
2022-12-29T02:56:24.290Z,291.0
2022-12-29T02:57:24.321Z,287.0
2022-12-29T02:58:24.340Z,285.0
2022-12-29T02:59:24.687Z,281.0
2022-12-29T03:00:24.197Z,281.0
2022-12-29T03:01:24.296Z,285.0
2022-12-29T03:02:24.269Z,288.0
2022-12-29T03:03:24.263Z,279.0
2022-12-29T03:04:24.163Z,291.0
2022-12-29T03:05:24.219Z,319.0
2022-12-29T03:06:24.100Z,286.0
2022-12-29T03:07:24.088Z,293.0
2022-12-29T03:08:24.097Z,294.0
2022-12-29T03:09:24.070Z,288.0
2022-12-29T03:10:24.071Z,284.0
2022-12-29T03:11:24.036Z,312.0
2022-12-29T03:12:24.038Z,290.0
2022-12-29T03:13:23.989Z,301.0
2022-12-29T03:14:23.980Z,300.0
2022-12-29T03:15:23.978Z,291.0
2022-12-29T03:16:24.002Z,291.0
2022-12-29T03:17:23.945Z,305.0
2022-12-29T03:18:23.957Z,290.0
2022-12-29T03:19:23.942Z,299.0
2022-12-29T03:20:23.929Z,307.0
2022-12-29T03:21:23.976Z,288.0
2022-12-29T03:22:24.674Z,292.0
2022-12-29T03:23:23.876Z,299.0
2022-12-29T03:24:23.904Z,294.0
2022-12-29T03:25:23.830Z,304.0
2022-12-29T03:26:23.870Z,294.0
2022-12-29T03:27:23.816Z,287.0
2022-12-29T03:28:23.809Z,306.0
2022-12-29T03:29:23.777Z,291.0
2022-12-29T03:30:23.767Z,300.0
2022-12-29T03:31:23.787Z,278.0
2022-12-29T03:32:23.750Z,287.0
2022-12-29T03:33:23.736Z,295.0
2022-12-29T03:34:23.735Z,300.0
2022-12-29T03:35:23.705Z,289.0
2022-12-29T03:36:23.685Z,264.0
2022-12-29T03:37:23.677Z,303.0
2022-12-29T03:38:23.700Z,285.0
2022-12-29T03:39:23.632Z,279.0
2022-12-29T03:40:23.673Z,302.0
2022-12-29T03:41:23.696Z,229.0
2022-12-29T03:42:23.602Z,276.0
2022-12-29T03:43:23.650Z,299.0
2022-12-29T03:44:23.648Z,313.0
2022-12-29T03:45:23.600Z,292.0
2022-12-29T03:46:23.573Z,287.0
2022-12-29T03:47:23.528Z,293.0
2022-12-29T03:48:23.558Z,291.0
2022-12-29T03:49:23.537Z,293.0
2022-12-29T03:50:23.515Z,305.0
2022-12-29T03:51:23.522Z,283.0
2022-12-29T03:52:23.507Z,289.0
2022-12-29T03:53:23.468Z,288.0
2022-12-29T03:54:23.490Z,306.0
2022-12-29T03:55:23.446Z,347.0
2022-12-29T03:56:23.443Z,311.0
2022-12-29T03:57:23.419Z,304.0
2022-12-29T03:58:23.473Z,301.0
2022-12-29T03:59:23.423Z,296.0
2022-12-29T04:00:23.402Z,339.0
2022-12-29T04:01:23.567Z,285.0
2022-12-29T04:02:23.514Z,297.0
2022-12-29T04:03:23.353Z,311.0
2022-12-29T04:04:23.327Z,304.0
2022-12-29T04:05:23.329Z,301.0
2022-12-29T04:06:23.311Z,292.0
2022-12-29T04:07:23.320Z,308.0
2022-12-29T04:08:23.304Z,295.0
2022-12-29T04:09:23.252Z,300.0
2022-12-29T04:10:23.240Z,300.0
2022-12-29T04:11:26.065Z,306.0
2022-12-29T04:12:23.240Z,306.0
2022-12-29T04:13:23.191Z,315.0
2022-12-29T04:14:23.191Z,278.0
2022-12-29T04:15:23.151Z,296.0
2022-12-29T04:16:23.195Z,293.0
2022-12-29T04:17:23.147Z,327.0
2022-12-29T04:18:23.140Z,310.0
2022-12-29T04:19:23.119Z,300.0
2022-12-29T04:20:23.187Z,305.0
2022-12-29T04:21:23.103Z,310.0
2022-12-29T04:22:23.108Z,322.0
2022-12-29T04:23:23.113Z,322.0
2022-12-29T04:24:23.087Z,288.0
2022-12-29T04:25:23.025Z,308.0
2022-12-29T04:26:23.062Z,281.0
2022-12-29T04:27:23.014Z,307.0
2022-12-29T04:28:23.014Z,307.0
2022-12-29T04:29:22.959Z,329.0
2022-12-29T04:30:22.965Z,316.0
2022-12-29T04:31:22.971Z,315.0
2022-12-29T04:32:22.958Z,273.0
2022-12-29T04:33:22.907Z,288.0
2022-12-29T04:34:22.935Z,298.0
2022-12-29T04:35:22.960Z,281.0
2022-12-29T04:36:27.850Z,267.0
2022-12-29T04:37:22.900Z,312.0
2022-12-29T04:38:22.862Z,299.0
2022-12-29T04:39:22.825Z,284.0
2022-12-29T04:40:22.853Z,304.0
2022-12-29T04:41:22.815Z,297.0
2022-12-29T04:42:22.828Z,277.0
2022-12-29T04:43:22.768Z,316.0
2022-12-29T04:44:22.820Z,308.0
2022-12-29T04:45:22.760Z,306.0
2022-12-29T04:46:22.822Z,301.0
2022-12-29T04:47:22.734Z,305.0
2022-12-29T04:48:22.735Z,310.0
2022-12-29T04:49:22.707Z,296.0
2022-12-29T04:50:22.719Z,303.0
2022-12-29T04:51:22.689Z,294.0
2022-12-29T04:52:22.688Z,313.0
2022-12-29T04:53:22.660Z,319.0
2022-12-29T04:54:22.664Z,305.0
2022-12-29T04:55:22.637Z,304.0
2022-12-29T04:56:22.642Z,307.0
2022-12-29T04:57:22.623Z,312.0
2022-12-29T04:58:23.383Z,315.0
2022-12-29T04:59:22.581Z,306.0
2022-12-29T05:00:22.565Z,296.0
2022-12-29T05:01:22.652Z,300.0
2022-12-29T05:02:22.679Z,284.0
2022-12-29T05:03:22.596Z,309.0
2022-12-29T05:04:22.524Z,308.0
2022-12-29T05:05:22.488Z,322.0
2022-12-29T05:06:22.496Z,322.0
2022-12-29T05:07:22.467Z,307.0
2022-12-29T05:08:27.816Z,306.0
2022-12-29T05:09:22.482Z,306.0
2022-12-29T05:10:22.421Z,304.0
2022-12-29T05:11:22.405Z,295.0
2022-12-29T05:12:22.405Z,308.0
2022-12-29T05:13:22.385Z,292.0
2022-12-29T05:14:22.400Z,311.0
2022-12-29T05:15:22.398Z,311.0
2022-12-29T05:16:22.400Z,307.0
2022-12-29T05:17:22.345Z,311.0
2022-12-29T05:18:22.334Z,305.0
2022-12-29T05:19:22.338Z,300.0
2022-12-29T05:20:22.296Z,301.0
2022-12-29T05:21:22.262Z,307.0
2022-12-29T05:22:22.289Z,299.0
2022-12-29T05:23:22.258Z,296.0
2022-12-29T05:24:22.248Z,318.0
2022-12-29T05:25:22.227Z,298.0
2022-12-29T05:26:22.229Z,287.0
2022-12-29T05:27:22.192Z,283.0
2022-12-29T05:28:22.200Z,307.0
2022-12-29T05:29:22.188Z,295.0
2022-12-29T05:30:22.167Z,294.0
2022-12-29T05:31:22.226Z,291.0
2022-12-29T05:32:22.126Z,297.0
2022-12-29T05:33:22.133Z,300.0
2022-12-29T05:34:22.125Z,290.0
2022-12-29T05:35:22.108Z,299.0
2022-12-29T05:36:22.108Z,289.0
2022-12-29T05:37:22.048Z,296.0
2022-12-29T05:38:22.061Z,291.0
2022-12-29T05:39:22.024Z,297.0
2022-12-29T05:40:22.027Z,302.0
2022-12-29T05:41:22.006Z,305.0
2022-12-29T05:42:22.010Z,301.0
2022-12-29T05:43:21.987Z,290.0
2022-12-29T05:44:21.959Z,300.0
2022-12-29T05:45:21.955Z,293.0
2022-12-29T05:46:21.997Z,314.0
2022-12-29T05:47:21.916Z,314.0
2022-12-29T05:48:37.537Z,291.0
2022-12-29T05:49:22.456Z,298.0
2022-12-29T05:50:31.412Z,291.0
2022-12-29T05:51:40.902Z,300.0
2022-12-29T05:52:27.256Z,288.0
2022-12-29T05:53:46.005Z,290.0
2022-12-29T05:54:23.895Z,291.0
2022-12-29T05:55:21.834Z,294.0
2022-12-29T05:56:24.155Z,294.0
2022-12-29T05:57:21.834Z,297.0
2022-12-29T05:58:21.800Z,299.0
2022-12-29T05:59:21.764Z,300.0
2022-12-29T06:00:21.787Z,293.0
2022-12-29T06:01:21.895Z,289.0
2022-12-29T06:02:21.913Z,288.0
2022-12-29T06:03:21.875Z,286.0
2022-12-29T06:04:21.717Z,285.0
2022-12-29T06:05:22.824Z,287.0
2022-12-29T06:06:21.696Z,287.0
2022-12-29T06:07:21.668Z,282.0
2022-12-29T06:08:21.673Z,281.0
2022-12-29T06:09:21.730Z,282.0
2022-12-29T06:10:21.689Z,280.0
2022-12-29T06:11:21.654Z,284.0
2022-12-29T06:12:21.590Z,281.0
2022-12-29T06:13:21.588Z,279.0
2022-12-29T06:14:21.596Z,281.0
2022-12-29T06:15:21.572Z,279.0
2022-12-29T06:16:21.611Z,276.0
2022-12-29T06:17:21.618Z,279.0
2022-12-29T06:18:21.595Z,278.0
2022-12-29T06:19:21.503Z,277.0
2022-12-29T06:20:21.509Z,275.0
2022-12-29T06:21:21.565Z,274.0
2022-12-29T06:22:21.451Z,273.0
2022-12-29T06:23:21.482Z,273.0
2022-12-29T06:24:21.437Z,273.0
2022-12-29T06:25:21.429Z,270.0
2022-12-29T06:26:21.434Z,269.0
2022-12-29T06:27:21.416Z,269.0
2022-12-29T06:28:21.404Z,266.0
2022-12-29T06:29:21.361Z,269.0
2022-12-29T06:30:21.364Z,270.0
2022-12-29T06:31:21.392Z,271.0
2022-12-29T06:32:21.324Z,271.0
2022-12-29T06:33:21.311Z,270.0
2022-12-29T06:34:21.352Z,265.0
2022-12-29T06:35:21.338Z,266.0
2022-12-29T06:36:21.335Z,271.0
2022-12-29T06:37:21.268Z,274.0
2022-12-29T06:38:21.233Z,274.0
2022-12-29T06:39:21.272Z,274.0
2022-12-29T06:40:21.209Z,273.0
2022-12-29T06:41:22.130Z,272.0
2022-12-29T06:42:21.214Z,271.0
2022-12-29T06:43:21.218Z,268.0
2022-12-29T06:44:21.181Z,267.0
2022-12-29T06:45:21.197Z,263.0
2022-12-29T06:46:21.228Z,263.0
2022-12-29T06:47:21.137Z,264.0
2022-12-29T06:48:21.131Z,264.0
2022-12-29T06:49:21.111Z,266.0
2022-12-29T06:50:21.155Z,267.0
2022-12-29T06:51:21.103Z,267.0
2022-12-29T06:52:21.106Z,265.0
2022-12-29T06:53:21.138Z,266.0
2022-12-29T06:54:21.043Z,265.0
2022-12-29T06:55:21.024Z,268.0
2022-12-29T06:56:21.205Z,270.0
2022-12-29T06:57:21.041Z,272.0
2022-12-29T06:58:21.091Z,273.0
2022-12-29T06:59:20.982Z,275.0
2022-12-29T07:00:23.017Z,276.0
2022-12-29T07:01:21.141Z,275.0
2022-12-29T07:02:21.188Z,276.0
2022-12-29T07:03:21.001Z,278.0
2022-12-29T07:04:20.931Z,281.0
2022-12-29T07:05:21.101Z,282.0
2022-12-29T07:06:21.167Z,282.0
2022-12-29T07:07:21.150Z,283.0
2022-12-29T07:08:20.922Z,286.0
2022-12-29T07:09:20.825Z,288.0
2022-12-29T07:10:20.801Z,287.0
2022-12-29T07:11:20.844Z,290.0
2022-12-29T07:12:20.797Z,297.0
2022-12-29T07:13:20.779Z,299.0
2022-12-29T07:14:20.769Z,303.0
2022-12-29T07:15:20.743Z,302.0
2022-12-29T07:16:20.782Z,305.0
2022-12-29T07:17:20.741Z,304.0
2022-12-29T07:18:20.705Z,269.0
2022-12-29T07:19:20.717Z,303.0
2022-12-29T07:20:26.286Z,303.0
2022-12-29T07:21:20.705Z,317.0
2022-12-29T07:22:20.708Z,324.0
2022-12-29T07:23:20.660Z,309.0
2022-12-29T07:24:20.716Z,324.0
2022-12-29T07:25:20.698Z,335.0
2022-12-29T07:26:20.786Z,297.0
2022-12-29T07:27:20.763Z,297.0
2022-12-29T07:28:20.682Z,280.0
2022-12-29T07:29:20.685Z,308.0
2022-12-29T07:30:20.917Z,310.0
2022-12-29T07:31:20.643Z,328.0
2022-12-29T07:32:20.694Z,310.0
2022-12-29T07:33:20.619Z,307.0
2022-12-29T07:34:20.795Z,304.0
2022-12-29T07:35:20.493Z,307.0
2022-12-29T07:36:20.455Z,296.0
2022-12-29T07:37:20.462Z,296.0
2022-12-29T07:38:20.473Z,293.0
2022-12-29T07:39:20.460Z,291.0
2022-12-29T07:40:20.406Z,288.0
2022-12-29T07:41:20.418Z,289.0
2022-12-29T07:42:20.397Z,295.0
2022-12-29T07:43:20.394Z,292.0
2022-12-29T07:44:20.353Z,287.0
2022-12-29T07:45:20.363Z,286.0
2022-12-29T07:46:56.254Z,284.0
2022-12-29T07:47:20.325Z,280.0
2022-12-29T07:48:20.352Z,278.0
2022-12-29T07:49:20.381Z,276.0
2022-12-29T07:50:20.355Z,267.0
2022-12-29T07:51:20.345Z,269.0
2022-12-29T07:52:20.267Z,268.0
2022-12-29T07:53:20.316Z,268.0
2022-12-29T07:54:21.332Z,264.0
2022-12-29T07:55:20.276Z,263.0
2022-12-29T07:56:22.224Z,257.0
2022-12-29T07:57:25.130Z,257.0
2022-12-29T07:58:21.942Z,252.0
2022-12-29T07:59:23.868Z,250.0
2022-12-29T08:00:22.723Z,248.0
2022-12-29T08:01:25.157Z,245.0
2022-12-29T08:02:22.534Z,245.0
2022-12-29T08:03:24.142Z,241.0
2022-12-29T08:04:22.679Z,245.0
2022-12-29T08:05:23.259Z,246.0
2022-12-29T08:06:36.467Z,242.0
2022-12-29T08:07:24.201Z,242.0
2022-12-29T08:08:21.972Z,240.0
2022-12-29T08:10:16.987Z,220.0
2022-12-29T08:11:17.971Z,236.0
2022-12-29T08:12:17.967Z,233.0
2022-12-29T08:13:17.955Z,235.0
2022-12-29T08:14:17.950Z,239.0
2022-12-29T08:15:17.927Z,241.0
2022-12-29T08:16:18.173Z,250.0
2022-12-29T08:17:17.918Z,258.0
2022-12-29T08:18:17.916Z,259.0
2022-12-29T08:19:17.877Z,256.0
2022-12-29T08:20:17.867Z,256.0
2022-12-29T08:21:17.851Z,264.0
2022-12-29T08:22:17.869Z,280.0
2022-12-29T08:23:17.864Z,278.0
2022-12-29T08:24:17.827Z,284.0
2022-12-29T08:25:17.792Z,293.0
2022-12-29T08:26:17.827Z,297.0
2022-12-29T08:27:20.832Z,279.0
2022-12-29T08:28:17.806Z,286.0
2022-12-29T08:29:17.757Z,283.0
2022-12-29T08:30:17.734Z,280.0
2022-12-29T08:31:17.805Z,285.0
2022-12-29T08:32:17.719Z,283.0
2022-12-29T08:33:17.710Z,283.0
2022-12-29T08:34:17.728Z,283.0
2022-12-29T08:35:17.647Z,278.0
2022-12-29T08:36:17.634Z,276.0
2022-12-29T08:37:17.623Z,274.0
2022-12-29T08:38:17.705Z,267.0
2022-12-29T08:39:17.634Z,270.0
2022-12-29T08:40:17.606Z,255.0
2022-12-29T08:41:17.567Z,262.0
2022-12-29T08:42:17.589Z,267.0
2022-12-29T08:43:18.699Z,261.0
2022-12-29T08:44:17.553Z,267.0
2022-12-29T08:45:17.529Z,269.0
2022-12-29T08:46:17.597Z,263.0
2022-12-29T08:47:17.491Z,266.0
2022-12-29T08:48:17.499Z,258.0
2022-12-29T08:49:17.472Z,260.0
2022-12-29T08:50:17.472Z,257.0
2022-12-29T08:51:22.789Z,259.0
2022-12-29T08:52:17.452Z,263.0
2022-12-29T08:53:17.428Z,256.0
2022-12-29T08:54:17.431Z,242.0
2022-12-29T08:55:17.399Z,249.0
2022-12-29T08:56:17.388Z,247.0
2022-12-29T08:57:17.368Z,244.0
2022-12-29T08:58:17.353Z,248.0
2022-12-29T08:59:17.347Z,250.0
2022-12-29T09:00:17.326Z,244.0
2022-12-29T09:01:17.424Z,250.0
2022-12-29T09:02:23.705Z,252.0
2022-12-29T09:03:31.474Z,248.0
2022-12-29T09:04:18.107Z,255.0
2022-12-29T09:05:17.408Z,251.0
2022-12-29T09:06:17.264Z,254.0
2022-12-29T09:07:17.296Z,261.0
2022-12-29T09:08:20.948Z,257.0
2022-12-29T09:09:17.204Z,260.0
2022-12-29T09:10:17.194Z,264.0
2022-12-29T09:11:17.185Z,264.0
2022-12-29T09:12:17.166Z,260.0
2022-12-29T09:13:17.194Z,269.0
2022-12-29T09:14:17.154Z,277.0
2022-12-29T09:15:17.160Z,278.0
2022-12-29T09:16:17.261Z,288.0
2022-12-29T09:17:17.151Z,291.0
2022-12-29T09:18:20.615Z,291.0
2022-12-29T09:19:17.084Z,306.0
2022-12-29T09:20:17.099Z,303.0
2022-12-29T09:21:17.055Z,308.0
2022-12-29T09:22:17.059Z,310.0
2022-12-29T09:23:17.025Z,311.0
2022-12-29T09:24:17.017Z,312.0
2022-12-29T09:25:16.999Z,312.0
2022-12-29T09:26:16.995Z,314.0
2022-12-29T09:27:16.968Z,318.0
2022-12-29T09:28:16.969Z,320.0
2022-12-29T09:29:16.945Z,326.0
2022-12-29T09:30:16.937Z,324.0
2022-12-29T09:31:16.973Z,326.0
2022-12-29T09:32:18.813Z,322.0
2022-12-29T09:33:16.897Z,321.0
2022-12-29T09:34:16.869Z,324.0
2022-12-29T09:35:16.877Z,325.0
2022-12-29T09:36:16.856Z,324.0
2022-12-29T09:37:16.830Z,323.0
2022-12-29T09:38:16.846Z,320.0
2022-12-29T09:39:16.809Z,323.0
2022-12-29T09:40:16.798Z,326.0
2022-12-29T09:41:16.789Z,327.0
2022-12-29T09:42:16.790Z,325.0
2022-12-29T09:43:16.773Z,326.0
2022-12-29T09:44:16.737Z,328.0
2022-12-29T09:45:16.731Z,327.0
2022-12-29T09:46:16.741Z,325.0
2022-12-29T09:47:16.696Z,328.0
2022-12-29T09:48:16.697Z,330.0
2022-12-29T09:49:16.667Z,331.0
2022-12-29T09:50:16.660Z,329.0
2022-12-29T09:51:16.663Z,328.0
2022-12-29T09:52:16.626Z,327.0
2022-12-29T09:53:16.626Z,325.0
2022-12-29T09:54:16.626Z,327.0
2022-12-29T09:55:16.611Z,328.0
2022-12-29T09:56:16.633Z,328.0
2022-12-29T09:57:16.584Z,330.0
2022-12-29T09:58:16.571Z,329.0
2022-12-29T09:59:16.538Z,329.0
2022-12-29T10:00:16.526Z,328.0
2022-12-29T10:01:16.566Z,326.0
2022-12-29T10:02:16.621Z,327.0
2022-12-29T10:03:16.624Z,328.0
2022-12-29T10:04:16.492Z,331.0
2022-12-29T10:05:16.494Z,329.0
2022-12-29T10:06:16.490Z,332.0
2022-12-29T10:07:31.895Z,334.0
2022-12-29T10:08:17.774Z,331.0
2022-12-29T10:09:16.421Z,334.0
2022-12-29T10:10:16.440Z,334.0
2022-12-29T10:11:16.385Z,335.0
2022-12-29T10:12:16.364Z,337.0
2022-12-29T10:13:16.363Z,337.0
2022-12-29T10:14:16.468Z,338.0
2022-12-29T10:15:16.319Z,339.0
2022-12-29T10:16:16.379Z,337.0
2022-12-29T10:17:16.299Z,336.0
2022-12-29T10:18:16.319Z,334.0
2022-12-29T10:19:16.288Z,334.0
2022-12-29T10:20:16.283Z,338.0
2022-12-29T10:21:16.254Z,338.0
2022-12-29T10:22:16.248Z,340.0
2022-12-29T10:23:16.232Z,346.0
2022-12-29T10:24:16.204Z,345.0
2022-12-29T10:25:16.201Z,341.0
2022-12-29T10:26:16.184Z,342.0
2022-12-29T10:27:16.172Z,341.0
2022-12-29T10:28:16.150Z,339.0
2022-12-29T10:29:16.150Z,336.0
2022-12-29T10:30:16.139Z,337.0
2022-12-29T10:31:16.166Z,335.0
2022-12-29T10:32:16.124Z,338.0
2022-12-29T10:33:16.108Z,336.0
2022-12-29T10:34:16.084Z,335.0
2022-12-29T10:35:16.089Z,334.0
2022-12-29T10:36:16.057Z,334.0
2022-12-29T10:37:16.067Z,332.0
2022-12-29T10:38:16.034Z,334.0
2022-12-29T10:39:16.031Z,332.0
2022-12-29T10:40:16.001Z,332.0
2022-12-29T10:41:15.997Z,330.0
2022-12-29T10:42:15.970Z,333.0
2022-12-29T10:43:21.022Z,329.0
2022-12-29T10:44:15.964Z,330.0
2022-12-29T10:45:15.951Z,330.0
2022-12-29T10:46:15.939Z,331.0
2022-12-29T10:47:15.934Z,328.0
2022-12-29T10:48:15.892Z,327.0
2022-12-29T10:49:21.313Z,328.0
2022-12-29T10:50:15.884Z,326.0
2022-12-29T10:51:15.883Z,328.0
2022-12-29T10:52:15.876Z,328.0
2022-12-29T10:53:15.840Z,330.0
2022-12-29T10:54:15.817Z,330.0
2022-12-29T10:55:15.851Z,330.0
2022-12-29T10:56:15.795Z,329.0
2022-12-29T10:57:15.809Z,327.0
2022-12-29T10:58:15.781Z,328.0
2022-12-29T10:59:15.760Z,329.0
2022-12-29T11:00:15.763Z,328.0
2022-12-29T11:01:15.754Z,328.0
2022-12-29T11:02:15.760Z,330.0
2022-12-29T11:03:15.926Z,331.0
2022-12-29T11:04:15.671Z,331.0
2022-12-29T11:05:15.659Z,331.0
2022-12-29T11:06:15.664Z,335.0
2022-12-29T11:07:16.639Z,335.0
2022-12-29T11:08:15.656Z,334.0
2022-12-29T11:09:15.627Z,334.0
2022-12-29T11:10:15.585Z,335.0
2022-12-29T11:11:15.595Z,334.0
2022-12-29T11:12:15.560Z,335.0
2022-12-29T11:13:15.557Z,335.0
2022-12-29T11:14:15.576Z,336.0
2022-12-29T11:15:15.555Z,336.0
2022-12-29T11:16:15.567Z,338.0
2022-12-29T11:17:15.523Z,341.0
2022-12-29T11:18:15.515Z,341.0
2022-12-29T11:19:15.488Z,338.0
2022-12-29T11:20:15.559Z,336.0
2022-12-29T11:21:15.450Z,337.0
2022-12-29T11:22:15.475Z,338.0
2022-12-29T11:23:15.430Z,335.0
2022-12-29T11:24:15.471Z,336.0
2022-12-29T11:25:15.424Z,334.0
2022-12-29T11:26:15.409Z,335.0
2022-12-29T11:27:15.399Z,336.0
2022-12-29T11:28:15.407Z,335.0
2022-12-29T11:29:15.379Z,334.0
2022-12-29T11:30:15.425Z,335.0
2022-12-29T11:31:15.360Z,333.0
2022-12-29T11:32:15.350Z,329.0
2022-12-29T11:33:15.334Z,327.0
2022-12-29T11:34:15.328Z,321.0
2022-12-29T11:35:15.301Z,319.0
2022-12-29T11:36:15.286Z,322.0
2022-12-29T11:37:15.275Z,316.0
2022-12-29T11:38:15.247Z,322.0
2022-12-29T11:39:15.237Z,312.0
2022-12-29T11:40:15.311Z,311.0
2022-12-29T11:41:15.241Z,309.0
2022-12-29T11:42:15.184Z,314.0
2022-12-29T11:43:15.160Z,307.0
2022-12-29T11:44:15.161Z,302.0
2022-12-29T11:45:15.186Z,301.0
2022-12-29T11:46:15.187Z,297.0
2022-12-29T11:47:15.126Z,291.0
2022-12-29T11:48:15.107Z,266.0
2022-12-29T11:49:15.097Z,268.0
2022-12-29T11:50:15.124Z,258.0
2022-12-29T11:51:15.075Z,256.0
2022-12-29T11:52:15.039Z,258.0
2022-12-29T11:53:15.042Z,258.0
2022-12-29T11:54:15.029Z,257.0
2022-12-29T11:55:15.013Z,255.0
2022-12-29T11:56:14.989Z,254.0
2022-12-29T11:57:15.046Z,253.0
2022-12-29T11:58:14.967Z,253.0
2022-12-29T11:59:14.960Z,250.0
2022-12-29T12:00:15.040Z,249.0
2022-12-29T12:01:14.988Z,248.0
2022-12-29T12:02:15.111Z,249.0
2022-12-29T12:03:15.015Z,251.0
2022-12-29T12:04:14.938Z,254.0
2022-12-29T12:05:14.888Z,258.0
2022-12-29T12:06:14.870Z,261.0
2022-12-29T12:07:14.867Z,261.0
2022-12-29T12:08:19.081Z,261.0
2022-12-29T12:09:14.840Z,258.0
2022-12-29T12:10:14.856Z,259.0
2022-12-29T12:11:14.832Z,264.0
2022-12-29T12:12:14.842Z,267.0
2022-12-29T12:13:14.791Z,271.0
2022-12-29T12:14:14.766Z,269.0
2022-12-29T12:15:14.783Z,267.0
2022-12-29T12:16:14.818Z,266.0
2022-12-29T12:17:14.726Z,270.0
2022-12-29T12:18:14.730Z,269.0
2022-12-29T12:19:14.703Z,274.0
2022-12-29T12:20:14.665Z,274.0
2022-12-29T12:21:15.393Z,274.0
2022-12-29T12:22:14.800Z,276.0
2022-12-29T12:23:14.655Z,280.0
2022-12-29T12:24:14.620Z,279.0
2022-12-29T12:25:14.606Z,280.0
2022-12-29T12:26:14.604Z,278.0
2022-12-29T12:27:14.582Z,277.0
2022-12-29T12:28:14.565Z,274.0
2022-12-29T12:29:14.571Z,269.0
2022-12-29T12:30:14.588Z,266.0
2022-12-29T12:31:14.614Z,270.0
2022-12-29T12:32:14.521Z,269.0
2022-12-29T12:33:14.506Z,272.0
2022-12-29T12:34:14.503Z,283.0
2022-12-29T12:35:19.750Z,287.0
2022-12-29T12:36:14.474Z,290.0
2022-12-29T12:37:14.478Z,292.0
2022-12-29T12:38:14.453Z,296.0
2022-12-29T12:39:14.466Z,298.0
2022-12-29T12:40:14.441Z,307.0
2022-12-29T12:41:19.704Z,334.0
2022-12-29T12:42:14.408Z,323.0
2022-12-29T12:43:14.521Z,319.0
2022-12-29T12:44:14.374Z,330.0
2022-12-29T12:45:14.340Z,295.0
2022-12-29T12:46:14.404Z,304.0
2022-12-29T12:49:49.892Z,313.0
2022-12-29T12:50:50.895Z,277.0
2022-12-29T12:51:50.887Z,292.0
2022-12-29T12:52:50.934Z,293.0
2022-12-29T12:53:50.860Z,297.0
2022-12-29T12:54:50.878Z,277.0
2022-12-29T12:55:50.824Z,279.0
2022-12-29T12:56:50.800Z,296.0